Terminal Aerodrome Forecast
Issued by NWS

Home | Current Version | Previous Version | Text Only | Print | Product List | Glossary On
Versions: 1 2 3 4 5 6 7 8 9 10 11 12
718
FTUS42 TJSJ 240530
TAFJMZ
TAF
TJMZ 240530Z 2406/2506 00000KT P6SM BKN060
     FM241530 VRB10KT P6SM VCTS SCT025CB BKN040
     FM242200 00000KT P6SM BKN060
      AMD NOT SKED=

USA.gov is the U.S. government's official web portal to all federal, state and local government web resources and services.